sensor_id;sensor_type;location;lat;lon;timestamp;P1;durP1;ratioP1;P2;durP2;ratioP2
15968;SDS011;8085;53.472;9.794;2022-10-16T00:00:35;8.20;;;6.50;;
15968;SDS011;8085;53.472;9.794;2022-10-16T00:03:04;9.47;;;5.80;;
15968;SDS011;8085;53.472;9.794;2022-10-16T00:05:32;12.47;;;5.97;;
15968;SDS011;8085;53.472;9.794;2022-10-16T00:08:03;8.13;;;5.93;;
15968;SDS011;8085;53.472;9.794;2022-10-16T00:10:32;7.63;;;5.47;;
15968;SDS011;8085;53.472;9.794;2022-10-16T00:12:59;7.97;;;4.90;;
15968;SDS011;8085;53.472;9.794;2022-10-16T00:15:25;9.40;;;4.60;;
15968;SDS011;8085;53.472;9.794;2022-10-16T00:17:52;7.53;;;4.17;;
15968;SDS011;8085;53.472;9.794;2022-10-16T00:20:19;5.70;;;4.00;;
15968;SDS011;8085;53.472;9.794;2022-10-16T00:22:46;7.30;;;4.17;;
15968;SDS011;8085;53.472;9.794;2022-10-16T00:25:13;5.73;;;3.67;;
15968;SDS011;8085;53.472;9.794;2022-10-16T00:27:41;6.17;;;3.83;;
15968;SDS011;8085;53.472;9.794;2022-10-16T00:30:08;8.33;;;3.73;;
15968;SDS011;8085;53.472;9.794;2022-10-16T00:32:35;6.47;;;3.93;;
15968;SDS011;8085;53.472;9.794;2022-10-16T00:35:02;5.70;;;3.47;;
15968;SDS011;8085;53.472;9.794;2022-10-16T00:37:29;6.17;;;3.57;;
15968;SDS011;8085;53.472;9.794;2022-10-16T00:39:56;5.77;;;3.50;;
15968;SDS011;8085;53.472;9.794;2022-10-16T00:42:23;9.87;;;4.70;;
15968;SDS011;8085;53.472;9.794;2022-10-16T00:44:52;7.73;;;4.10;;
15968;SDS011;8085;53.472;9.794;2022-10-16T00:47:23;5.87;;;3.30;;
15968;SDS011;8085;53.472;9.794;2022-10-16T00:49:53;6.37;;;3.10;;
15968;SDS011;8085;53.472;9.794;2022-10-16T00:52:24;5.37;;;3.07;;
15968;SDS011;8085;53.472;9.794;2022-10-16T00:54:51;4.03;;;3.03;;
15968;SDS011;8085;53.472;9.794;2022-10-16T00:57:19;4.27;;;2.70;;
15968;SDS011;8085;53.472;9.794;2022-10-16T00:59:47;4.73;;;2.53;;
15968;SDS011;8085;53.472;9.794;2022-10-16T01:02:15;4.13;;;2.37;;
15968;SDS011;8085;53.472;9.794;2022-10-16T01:04:43;3.10;;;2.10;;
15968;SDS011;8085;53.472;9.794;2022-10-16T01:07:14;5.23;;;2.23;;
15968;SDS011;8085;53.472;9.794;2022-10-16T01:09:51;2.93;;;1.83;;
15968;SDS011;8085;53.472;9.794;2022-10-16T01:12:28;2.67;;;1.87;;
15968;SDS011;8085;53.472;9.794;2022-10-16T01:15:03;3.13;;;1.77;;
15968;SDS011;8085;53.472;9.794;2022-10-16T01:17:40;3.93;;;2.30;;
15968;SDS011;8085;53.472;9.794;2022-10-16T01:20:13;4.83;;;2.10;;
15968;SDS011;8085;53.472;9.794;2022-10-16T01:22:48;4.17;;;2.03;;
15968;SDS011;8085;53.472;9.794;2022-10-16T01:25:25;5.63;;;2.03;;
15968;SDS011;8085;53.472;9.794;2022-10-16T01:28:04;5.90;;;2.33;;
15968;SDS011;8085;53.472;9.794;2022-10-16T01:30:35;4.33;;;1.90;;
15968;SDS011;8085;53.472;9.794;2022-10-16T01:33:04;5.73;;;2.27;;
15968;SDS011;8085;53.472;9.794;2022-10-16T01:35:36;3.33;;;2.40;;
15968;SDS011;8085;53.472;9.794;2022-10-16T01:38:08;3.63;;;1.80;;
15968;SDS011;8085;53.472;9.794;2022-10-16T01:40:39;3.33;;;2.00;;
15968;SDS011;8085;53.472;9.794;2022-10-16T01:43:12;2.53;;;1.80;;
15968;SDS011;8085;53.472;9.794;2022-10-16T01:45:44;3.20;;;1.70;;
15968;SDS011;8085;53.472;9.794;2022-10-16T01:48:12;4.20;;;1.80;;
15968;SDS011;8085;53.472;9.794;2022-10-16T01:50:43;3.97;;;1.80;;
15968;SDS011;8085;53.472;9.794;2022-10-16T01:53:14;3.60;;;1.70;;
15968;SDS011;8085;53.472;9.794;2022-10-16T01:55:44;3.03;;;1.80;;
15968;SDS011;8085;53.472;9.794;2022-10-16T01:58:15;3.53;;;1.80;;
15968;SDS011;8085;53.472;9.794;2022-10-16T02:00:43;3.03;;;1.70;;
15968;SDS011;8085;53.472;9.794;2022-10-16T02:03:12;3.23;;;1.83;;
15968;SDS011;8085;53.472;9.794;2022-10-16T02:05:41;3.27;;;1.63;;
15968;SDS011;8085;53.472;9.794;2022-10-16T02:08:12;3.30;;;1.60;;
15968;SDS011;8085;53.472;9.794;2022-10-16T02:10:39;6.07;;;1.77;;
15968;SDS011;8085;53.472;9.794;2022-10-16T02:13:08;5.60;;;1.97;;
15968;SDS011;8085;53.472;9.794;2022-10-16T02:15:40;3.60;;;1.53;;
15968;SDS011;8085;53.472;9.794;2022-10-16T02:18:07;2.80;;;1.47;;
15968;SDS011;8085;53.472;9.794;2022-10-16T02:20:36;3.80;;;1.70;;
15968;SDS011;8085;53.472;9.794;2022-10-16T02:23:12;4.40;;;1.67;;
15968;SDS011;8085;53.472;9.794;2022-10-16T02:25:46;2.67;;;1.60;;
15968;SDS011;8085;53.472;9.794;2022-10-16T02:28:16;2.33;;;1.23;;
15968;SDS011;8085;53.472;9.794;2022-10-16T02:30:50;2.33;;;1.47;;
15968;SDS011;8085;53.472;9.794;2022-10-16T02:33:19;2.63;;;1.40;;
15968;SDS011;8085;53.472;9.794;2022-10-16T02:35:48;3.00;;;1.50;;
15968;SDS011;8085;53.472;9.794;2022-10-16T02:38:17;3.90;;;1.50;;
15968;SDS011;8085;53.472;9.794;2022-10-16T02:40:45;2.50;;;1.40;;
15968;SDS011;8085;53.472;9.794;2022-10-16T02:43:12;3.73;;;1.60;;
15968;SDS011;8085;53.472;9.794;2022-10-16T02:45:39;2.17;;;1.40;;
15968;SDS011;8085;53.472;9.794;2022-10-16T02:48:07;2.37;;;1.20;;
15968;SDS011;8085;53.472;9.794;2022-10-16T02:50:34;3.53;;;1.40;;
15968;SDS011;8085;53.472;9.794;2022-10-16T02:53:01;4.83;;;1.60;;
15968;SDS011;8085;53.472;9.794;2022-10-16T02:55:28;2.00;;;1.37;;
15968;SDS011;8085;53.472;9.794;2022-10-16T02:57:55;2.30;;;1.60;;
15968;SDS011;8085;53.472;9.794;2022-10-16T03:00:22;8.87;;;1.53;;
15968;SDS011;8085;53.472;9.794;2022-10-16T03:02:49;4.87;;;1.60;;
15968;SDS011;8085;53.472;9.794;2022-10-16T03:05:17;2.40;;;1.43;;
15968;SDS011;8085;53.472;9.794;2022-10-16T03:07:44;2.23;;;1.50;;
15968;SDS011;8085;53.472;9.794;2022-10-16T03:10:11;3.83;;;1.73;;
15968;SDS011;8085;53.472;9.794;2022-10-16T03:12:38;2.97;;;1.60;;
15968;SDS011;8085;53.472;9.794;2022-10-16T03:15:05;2.53;;;1.40;;
15968;SDS011;8085;53.472;9.794;2022-10-16T03:17:32;3.90;;;1.67;;
15968;SDS011;8085;53.472;9.794;2022-10-16T03:19:59;3.43;;;1.30;;
15968;SDS011;8085;53.472;9.794;2022-10-16T03:22:28;5.10;;;1.73;;
15968;SDS011;8085;53.472;9.794;2022-10-16T03:24:54;2.07;;;1.67;;
15968;SDS011;8085;53.472;9.794;2022-10-16T03:27:21;4.27;;;1.63;;
15968;SDS011;8085;53.472;9.794;2022-10-16T03:29:49;4.77;;;1.37;;
15968;SDS011;8085;53.472;9.794;2022-10-16T03:32:15;3.90;;;1.50;;
15968;SDS011;8085;53.472;9.794;2022-10-16T03:34:43;6.23;;;1.60;;
15968;SDS011;8085;53.472;9.794;2022-10-16T03:37:10;3.50;;;1.67;;
15968;SDS011;8085;53.472;9.794;2022-10-16T03:39:38;1.93;;;1.50;;
15968;SDS011;8085;53.472;9.794;2022-10-16T03:42:05;3.37;;;1.43;;
15968;SDS011;8085;53.472;9.794;2022-10-16T03:44:32;3.80;;;1.70;;
15968;SDS011;8085;53.472;9.794;2022-10-16T03:46:59;5.80;;;1.70;;
15968;SDS011;8085;53.472;9.794;2022-10-16T03:49:25;5.20;;;1.43;;
15968;SDS011;8085;53.472;9.794;2022-10-16T03:51:52;4.97;;;1.40;;
15968;SDS011;8085;53.472;9.794;2022-10-16T03:54:19;2.93;;;1.30;;
15968;SDS011;8085;53.472;9.794;2022-10-16T03:56:48;2.90;;;1.60;;
15968;SDS011;8085;53.472;9.794;2022-10-16T03:59:15;2.43;;;1.60;;
15968;SDS011;8085;53.472;9.794;2022-10-16T04:01:42;3.30;;;1.90;;
15968;SDS011;8085;53.472;9.794;2022-10-16T04:04:09;3.20;;;1.57;;
15968;SDS011;8085;53.472;9.794;2022-10-16T04:06:35;6.20;;;1.47;;
15968;SDS011;8085;53.472;9.794;2022-10-16T04:09:02;4.50;;;1.60;;
15968;SDS011;8085;53.472;9.794;2022-10-16T04:11:29;4.53;;;1.70;;
15968;SDS011;8085;53.472;9.794;2022-10-16T04:13:57;2.53;;;1.43;;
15968;SDS011;8085;53.472;9.794;2022-10-16T04:16:24;5.43;;;1.67;;
15968;SDS011;8085;53.472;9.794;2022-10-16T04:18:51;5.97;;;1.73;;
15968;SDS011;8085;53.472;9.794;2022-10-16T04:21:18;3.83;;;1.80;;
15968;SDS011;8085;53.472;9.794;2022-10-16T04:23:45;6.03;;;1.73;;
15968;SDS011;8085;53.472;9.794;2022-10-16T04:26:11;6.73;;;1.53;;
15968;SDS011;8085;53.472;9.794;2022-10-16T04:28:38;5.87;;;1.90;;
15968;SDS011;8085;53.472;9.794;2022-10-16T04:31:06;3.43;;;2.00;;
15968;SDS011;8085;53.472;9.794;2022-10-16T04:33:33;5.33;;;1.87;;
15968;SDS011;8085;53.472;9.794;2022-10-16T04:36:00;6.40;;;2.00;;
15968;SDS011;8085;53.472;9.794;2022-10-16T04:38:28;2.93;;;1.97;;
15968;SDS011;8085;53.472;9.794;2022-10-16T04:40:55;4.47;;;1.80;;
15968;SDS011;8085;53.472;9.794;2022-10-16T04:43:22;6.03;;;2.20;;
15968;SDS011;8085;53.472;9.794;2022-10-16T04:45:49;3.83;;;2.17;;
15968;SDS011;8085;53.472;9.794;2022-10-16T04:48:18;5.33;;;2.37;;
15968;SDS011;8085;53.472;9.794;2022-10-16T04:50:45;5.67;;;2.63;;
15968;SDS011;8085;53.472;9.794;2022-10-16T04:53:12;7.43;;;2.90;;
15968;SDS011;8085;53.472;9.794;2022-10-16T04:55:38;8.17;;;2.47;;
15968;SDS011;8085;53.472;9.794;2022-10-16T04:58:07;4.30;;;2.57;;
15968;SDS011;8085;53.472;9.794;2022-10-16T05:00:34;4.80;;;2.37;;
15968;SDS011;8085;53.472;9.794;2022-10-16T05:03:01;3.33;;;2.40;;
15968;SDS011;8085;53.472;9.794;2022-10-16T05:05:32;9.60;;;2.93;;
15968;SDS011;8085;53.472;9.794;2022-10-16T05:07:59;6.73;;;2.40;;
15968;SDS011;8085;53.472;9.794;2022-10-16T05:10:26;7.17;;;2.60;;
15968;SDS011;8085;53.472;9.794;2022-10-16T05:12:53;7.20;;;2.80;;
15968;SDS011;8085;53.472;9.794;2022-10-16T05:15:20;6.30;;;2.80;;
15968;SDS011;8085;53.472;9.794;2022-10-16T05:17:51;13.20;;;2.93;;
15968;SDS011;8085;53.472;9.794;2022-10-16T05:20:18;7.57;;;3.10;;
15968;SDS011;8085;53.472;9.794;2022-10-16T05:22:47;5.37;;;2.73;;
15968;SDS011;8085;53.472;9.794;2022-10-16T05:25:13;5.60;;;2.80;;
15968;SDS011;8085;53.472;9.794;2022-10-16T05:27:40;4.80;;;2.77;;
15968;SDS011;8085;53.472;9.794;2022-10-16T05:30:07;4.07;;;2.67;;
15968;SDS011;8085;53.472;9.794;2022-10-16T05:32:35;6.20;;;2.97;;
15968;SDS011;8085;53.472;9.794;2022-10-16T05:35:02;5.37;;;2.57;;
15968;SDS011;8085;53.472;9.794;2022-10-16T05:37:29;6.27;;;2.60;;
15968;SDS011;8085;53.472;9.794;2022-10-16T05:39:57;5.17;;;2.23;;
15968;SDS011;8085;53.472;9.794;2022-10-16T05:42:24;8.57;;;2.43;;
15968;SDS011;8085;53.472;9.794;2022-10-16T05:44:51;4.93;;;2.30;;
15968;SDS011;8085;53.472;9.794;2022-10-16T05:47:18;9.33;;;2.63;;
15968;SDS011;8085;53.472;9.794;2022-10-16T05:49:45;4.33;;;2.67;;
15968;SDS011;8085;53.472;9.794;2022-10-16T05:52:12;5.77;;;2.50;;
15968;SDS011;8085;53.472;9.794;2022-10-16T05:54:39;5.97;;;2.57;;
15968;SDS011;8085;53.472;9.794;2022-10-16T05:57:07;5.27;;;2.70;;
15968;SDS011;8085;53.472;9.794;2022-10-16T05:59:34;5.17;;;2.00;;
15968;SDS011;8085;53.472;9.794;2022-10-16T06:02:01;5.37;;;2.47;;
15968;SDS011;8085;53.472;9.794;2022-10-16T06:04:28;5.60;;;2.37;;
15968;SDS011;8085;53.472;9.794;2022-10-16T06:06:57;4.90;;;2.47;;
15968;SDS011;8085;53.472;9.794;2022-10-16T06:09:26;7.57;;;2.43;;
15968;SDS011;8085;53.472;9.794;2022-10-16T06:11:53;5.27;;;2.47;;
15968;SDS011;8085;53.472;9.794;2022-10-16T06:14:21;4.73;;;2.80;;
15968;SDS011;8085;53.472;9.794;2022-10-16T06:16:48;6.10;;;3.10;;
15968;SDS011;8085;53.472;9.794;2022-10-16T06:19:14;4.60;;;2.60;;
15968;SDS011;8085;53.472;9.794;2022-10-16T06:21:42;7.43;;;2.80;;
15968;SDS011;8085;53.472;9.794;2022-10-16T06:24:09;7.77;;;3.10;;
15968;SDS011;8085;53.472;9.794;2022-10-16T06:26:36;10.23;;;2.90;;
15968;SDS011;8085;53.472;9.794;2022-10-16T06:29:04;6.80;;;3.00;;
15968;SDS011;8085;53.472;9.794;2022-10-16T06:31:32;6.60;;;3.37;;
15968;SDS011;8085;53.472;9.794;2022-10-16T06:33:59;8.93;;;3.23;;
15968;SDS011;8085;53.472;9.794;2022-10-16T06:36:27;5.50;;;3.07;;
15968;SDS011;8085;53.472;9.794;2022-10-16T06:38:54;6.40;;;3.30;;
15968;SDS011;8085;53.472;9.794;2022-10-16T06:41:21;9.00;;;3.43;;
15968;SDS011;8085;53.472;9.794;2022-10-16T06:43:49;6.97;;;3.60;;
15968;SDS011;8085;53.472;9.794;2022-10-16T06:46:17;6.03;;;3.57;;
15968;SDS011;8085;53.472;9.794;2022-10-16T06:48:48;6.40;;;3.47;;
15968;SDS011;8085;53.472;9.794;2022-10-16T06:51:15;6.30;;;3.60;;
15968;SDS011;8085;53.472;9.794;2022-10-16T06:53:43;9.53;;;3.83;;
15968;SDS011;8085;53.472;9.794;2022-10-16T06:56:13;7.57;;;3.73;;
15968;SDS011;8085;53.472;9.794;2022-10-16T06:58:41;6.93;;;3.70;;
15968;SDS011;8085;53.472;9.794;2022-10-16T07:01:08;8.03;;;4.13;;
15968;SDS011;8085;53.472;9.794;2022-10-16T07:03:36;10.43;;;3.70;;
15968;SDS011;8085;53.472;9.794;2022-10-16T07:06:06;8.53;;;3.77;;
15968;SDS011;8085;53.472;9.794;2022-10-16T07:08:34;7.33;;;3.77;;
15968;SDS011;8085;53.472;9.794;2022-10-16T07:11:04;5.67;;;3.50;;
15968;SDS011;8085;53.472;9.794;2022-10-16T07:13:32;5.07;;;3.50;;
15968;SDS011;8085;53.472;9.794;2022-10-16T07:16:03;6.47;;;3.60;;
15968;SDS011;8085;53.472;9.794;2022-10-16T07:18:31;8.60;;;4.10;;
15968;SDS011;8085;53.472;9.794;2022-10-16T07:21:02;10.07;;;3.40;;
15968;SDS011;8085;53.472;9.794;2022-10-16T07:23:31;7.53;;;3.87;;
15968;SDS011;8085;53.472;9.794;2022-10-16T07:25:58;5.23;;;3.03;;
15968;SDS011;8085;53.472;9.794;2022-10-16T07:28:25;5.00;;;3.23;;
15968;SDS011;8085;53.472;9.794;2022-10-16T07:30:52;6.50;;;3.33;;
15968;SDS011;8085;53.472;9.794;2022-10-16T07:33:19;8.30;;;3.90;;
15968;SDS011;8085;53.472;9.794;2022-10-16T07:35:49;6.20;;;3.40;;
15968;SDS011;8085;53.472;9.794;2022-10-16T07:38:17;7.07;;;3.40;;
15968;SDS011;8085;53.472;9.794;2022-10-16T07:40:45;6.50;;;3.30;;
15968;SDS011;8085;53.472;9.794;2022-10-16T07:43:12;6.33;;;3.07;;
15968;SDS011;8085;53.472;9.794;2022-10-16T07:45:46;6.53;;;3.30;;
15968;SDS011;8085;53.472;9.794;2022-10-16T07:48:14;5.53;;;3.20;;
15968;SDS011;8085;53.472;9.794;2022-10-16T07:50:41;7.27;;;3.20;;
15968;SDS011;8085;53.472;9.794;2022-10-16T07:53:08;5.33;;;3.00;;
15968;SDS011;8085;53.472;9.794;2022-10-16T07:55:35;5.40;;;3.13;;
15968;SDS011;8085;53.472;9.794;2022-10-16T07:58:04;6.03;;;3.23;;
15968;SDS011;8085;53.472;9.794;2022-10-16T08:00:31;6.33;;;3.13;;
15968;SDS011;8085;53.472;9.794;2022-10-16T08:02:58;3.77;;;2.80;;
15968;SDS011;8085;53.472;9.794;2022-10-16T08:05:26;7.40;;;3.03;;
15968;SDS011;8085;53.472;9.794;2022-10-16T08:07:53;5.00;;;3.27;;
15968;SDS011;8085;53.472;9.794;2022-10-16T08:10:21;5.53;;;3.07;;
15968;SDS011;8085;53.472;9.794;2022-10-16T08:12:49;3.17;;;2.50;;
15968;SDS011;8085;53.472;9.794;2022-10-16T08:15:18;6.67;;;3.13;;
15968;SDS011;8085;53.472;9.794;2022-10-16T08:17:53;4.17;;;3.03;;
15968;SDS011;8085;53.472;9.794;2022-10-16T08:20:21;5.43;;;2.67;;
15968;SDS011;8085;53.472;9.794;2022-10-16T08:22:47;7.33;;;3.23;;
15968;SDS011;8085;53.472;9.794;2022-10-16T08:25:14;3.80;;;2.70;;
15968;SDS011;8085;53.472;9.794;2022-10-16T08:27:41;4.70;;;2.53;;
15968;SDS011;8085;53.472;9.794;2022-10-16T08:30:10;3.90;;;2.60;;
15968;SDS011;8085;53.472;9.794;2022-10-16T08:32:38;5.47;;;2.60;;
15968;SDS011;8085;53.472;9.794;2022-10-16T08:35:06;4.13;;;2.20;;
15968;SDS011;8085;53.472;9.794;2022-10-16T08:37:34;6.27;;;2.40;;
15968;SDS011;8085;53.472;9.794;2022-10-16T08:40:01;4.53;;;2.43;;
15968;SDS011;8085;53.472;9.794;2022-10-16T08:42:34;5.50;;;2.30;;
15968;SDS011;8085;53.472;9.794;2022-10-16T08:45:17;5.10;;;2.50;;
15968;SDS011;8085;53.472;9.794;2022-10-16T08:47:56;3.60;;;2.30;;
15968;SDS011;8085;53.472;9.794;2022-10-16T08:50:31;3.53;;;2.07;;
15968;SDS011;8085;53.472;9.794;2022-10-16T08:53:02;4.93;;;2.10;;
15968;SDS011;8085;53.472;9.794;2022-10-16T08:55:32;4.47;;;2.30;;
15968;SDS011;8085;53.472;9.794;2022-10-16T08:58:09;2.20;;;1.87;;
15968;SDS011;8085;53.472;9.794;2022-10-16T09:00:39;2.93;;;1.93;;
15968;SDS011;8085;53.472;9.794;2022-10-16T09:03:10;4.00;;;1.73;;
15968;SDS011;8085;53.472;9.794;2022-10-16T09:08:53;3.87;;;2.03;;
15968;SDS011;8085;53.472;9.794;2022-10-16T09:11:36;3.37;;;1.50;;
15968;SDS011;8085;53.472;9.794;2022-10-16T09:14:14;2.80;;;1.40;;
15968;SDS011;8085;53.472;9.794;2022-10-16T09:17:03;3.73;;;1.53;;
15968;SDS011;8085;53.472;9.794;2022-10-16T09:19:46;2.47;;;1.63;;
15968;SDS011;8085;53.472;9.794;2022-10-16T09:22:19;3.73;;;1.30;;
15968;SDS011;8085;53.472;9.794;2022-10-16T09:24:51;2.13;;;1.20;;
15968;SDS011;8085;53.472;9.794;2022-10-16T09:27:18;4.90;;;1.43;;
15968;SDS011;8085;53.472;9.794;2022-10-16T09:29:45;5.37;;;1.30;;
15968;SDS011;8085;53.472;9.794;2022-10-16T09:32:12;4.07;;;1.47;;
15968;SDS011;8085;53.472;9.794;2022-10-16T09:34:43;3.63;;;1.50;;
15968;SDS011;8085;53.472;9.794;2022-10-16T09:37:14;3.27;;;1.63;;
15968;SDS011;8085;53.472;9.794;2022-10-16T09:39:44;5.07;;;1.47;;
15968;SDS011;8085;53.472;9.794;2022-10-16T09:42:13;3.47;;;1.37;;
15968;SDS011;8085;53.472;9.794;2022-10-16T09:44:42;3.63;;;1.70;;
15968;SDS011;8085;53.472;9.794;2022-10-16T09:47:14;5.13;;;1.70;;
15968;SDS011;8085;53.472;9.794;2022-10-16T09:49:51;3.13;;;1.20;;
15968;SDS011;8085;53.472;9.794;2022-10-16T09:52:20;2.77;;;1.60;;
15968;SDS011;8085;53.472;9.794;2022-10-16T09:54:51;5.93;;;2.00;;
15968;SDS011;8085;53.472;9.794;2022-10-16T09:57:19;5.93;;;1.43;;
15968;SDS011;8085;53.472;9.794;2022-10-16T09:59:47;2.80;;;1.50;;
15968;SDS011;8085;53.472;9.794;2022-10-16T10:02:16;3.60;;;1.30;;
15968;SDS011;8085;53.472;9.794;2022-10-16T10:04:48;4.13;;;1.47;;
15968;SDS011;8085;53.472;9.794;2022-10-16T10:07:21;5.00;;;1.43;;
15968;SDS011;8085;53.472;9.794;2022-10-16T10:09:51;4.97;;;1.60;;
15968;SDS011;8085;53.472;9.794;2022-10-16T10:12:20;2.77;;;1.30;;
15968;SDS011;8085;53.472;9.794;2022-10-16T10:14:50;4.93;;;1.47;;
15968;SDS011;8085;53.472;9.794;2022-10-16T10:17:19;3.57;;;1.27;;
15968;SDS011;8085;53.472;9.794;2022-10-16T10:19:48;6.87;;;1.50;;
15968;SDS011;8085;53.472;9.794;2022-10-16T10:22:20;2.93;;;0.93;;
15968;SDS011;8085;53.472;9.794;2022-10-16T10:24:56;4.07;;;1.13;;
15968;SDS011;8085;53.472;9.794;2022-10-16T10:27:29;5.10;;;1.30;;
15968;SDS011;8085;53.472;9.794;2022-10-16T10:30:05;3.87;;;1.37;;
15968;SDS011;8085;53.472;9.794;2022-10-16T10:32:43;2.80;;;1.00;;
15968;SDS011;8085;53.472;9.794;2022-10-16T10:35:22;3.27;;;1.03;;
15968;SDS011;8085;53.472;9.794;2022-10-16T10:38:00;3.30;;;1.17;;
15968;SDS011;8085;53.472;9.794;2022-10-16T10:40:38;3.87;;;1.17;;
15968;SDS011;8085;53.472;9.794;2022-10-16T10:43:14;4.53;;;1.13;;
15968;SDS011;8085;53.472;9.794;2022-10-16T10:45:52;8.60;;;1.47;;
15968;SDS011;8085;53.472;9.794;2022-10-16T10:48:40;7.53;;;1.23;;
15968;SDS011;8085;53.472;9.794;2022-10-16T10:51:19;2.07;;;1.00;;
15968;SDS011;8085;53.472;9.794;2022-10-16T10:53:51;4.80;;;1.00;;
15968;SDS011;8085;53.472;9.794;2022-10-16T10:56:30;2.13;;;1.13;;
15968;SDS011;8085;53.472;9.794;2022-10-16T10:59:13;3.23;;;1.13;;
15968;SDS011;8085;53.472;9.794;2022-10-16T11:01:55;2.93;;;0.80;;
15968;SDS011;8085;53.472;9.794;2022-10-16T11:04:33;5.10;;;1.33;;
15968;SDS011;8085;53.472;9.794;2022-10-16T11:07:18;2.53;;;1.00;;
15968;SDS011;8085;53.472;9.794;2022-10-16T11:09:49;2.27;;;1.03;;
15968;SDS011;8085;53.472;9.794;2022-10-16T11:12:22;3.77;;;1.13;;
15968;SDS011;8085;53.472;9.794;2022-10-16T11:14:56;4.03;;;0.90;;
15968;SDS011;8085;53.472;9.794;2022-10-16T11:17:28;3.23;;;0.80;;
15968;SDS011;8085;53.472;9.794;2022-10-16T11:20:00;1.60;;;0.80;;
15968;SDS011;8085;53.472;9.794;2022-10-16T11:22:34;6.00;;;1.10;;
15968;SDS011;8085;53.472;9.794;2022-10-16T11:25:05;4.57;;;1.23;;
15968;SDS011;8085;53.472;9.794;2022-10-16T11:27:40;1.77;;;0.80;;
15968;SDS011;8085;53.472;9.794;2022-10-16T11:30:14;6.77;;;0.90;;
15968;SDS011;8085;53.472;9.794;2022-10-16T11:32:49;3.20;;;0.90;;
15968;SDS011;8085;53.472;9.794;2022-10-16T11:35:32;2.30;;;0.87;;
15968;SDS011;8085;53.472;9.794;2022-10-16T11:38:09;4.40;;;0.80;;
15968;SDS011;8085;53.472;9.794;2022-10-16T11:40:41;3.13;;;0.97;;
15968;SDS011;8085;53.472;9.794;2022-10-16T11:43:14;2.50;;;1.00;;
15968;SDS011;8085;53.472;9.794;2022-10-16T11:45:48;2.37;;;1.10;;
15968;SDS011;8085;53.472;9.794;2022-10-16T11:48:20;2.43;;;1.10;;
15968;SDS011;8085;53.472;9.794;2022-10-16T11:50:52;4.50;;;1.10;;
15968;SDS011;8085;53.472;9.794;2022-10-16T11:53:23;4.53;;;1.17;;
15968;SDS011;8085;53.472;9.794;2022-10-16T11:56:05;2.47;;;0.80;;
15968;SDS011;8085;53.472;9.794;2022-10-16T11:58:33;2.77;;;0.90;;
15968;SDS011;8085;53.472;9.794;2022-10-16T12:01:06;3.40;;;1.10;;
15968;SDS011;8085;53.472;9.794;2022-10-16T12:03:44;3.80;;;1.00;;
15968;SDS011;8085;53.472;9.794;2022-10-16T12:06:19;7.30;;;1.20;;
15968;SDS011;8085;53.472;9.794;2022-10-16T12:08:55;2.37;;;0.87;;
15968;SDS011;8085;53.472;9.794;2022-10-16T12:11:36;6.93;;;0.90;;
15968;SDS011;8085;53.472;9.794;2022-10-16T12:14:05;3.23;;;0.80;;
15968;SDS011;8085;53.472;9.794;2022-10-16T12:16:50;2.70;;;1.00;;
15968;SDS011;8085;53.472;9.794;2022-10-16T12:19:19;5.97;;;1.10;;
15968;SDS011;8085;53.472;9.794;2022-10-16T12:21:48;3.13;;;0.87;;
15968;SDS011;8085;53.472;9.794;2022-10-16T12:24:34;3.43;;;1.07;;
15968;SDS011;8085;53.472;9.794;2022-10-16T12:27:03;4.13;;;1.10;;
15968;SDS011;8085;53.472;9.794;2022-10-16T12:29:33;3.07;;;0.90;;
15968;SDS011;8085;53.472;9.794;2022-10-16T12:32:03;1.77;;;0.80;;
15968;SDS011;8085;53.472;9.794;2022-10-16T12:34:34;3.17;;;1.10;;
15968;SDS011;8085;53.472;9.794;2022-10-16T12:37:09;2.47;;;1.00;;
15968;SDS011;8085;53.472;9.794;2022-10-16T12:39:40;4.47;;;1.10;;
15968;SDS011;8085;53.472;9.794;2022-10-16T12:42:19;3.83;;;1.10;;
15968;SDS011;8085;53.472;9.794;2022-10-16T12:44:48;2.47;;;0.90;;
15968;SDS011;8085;53.472;9.794;2022-10-16T12:47:19;3.93;;;0.90;;
15968;SDS011;8085;53.472;9.794;2022-10-16T12:49:48;3.63;;;0.90;;
15968;SDS011;8085;53.472;9.794;2022-10-16T12:52:24;4.00;;;0.90;;
15968;SDS011;8085;53.472;9.794;2022-10-16T12:54:56;2.33;;;0.90;;
15968;SDS011;8085;53.472;9.794;2022-10-16T12:57:30;2.60;;;0.90;;
15968;SDS011;8085;53.472;9.794;2022-10-16T13:00:10;6.73;;;0.90;;
15968;SDS011;8085;53.472;9.794;2022-10-16T13:02:56;5.83;;;1.23;;
15968;SDS011;8085;53.472;9.794;2022-10-16T13:05:46;4.60;;;1.00;;
15968;SDS011;8085;53.472;9.794;2022-10-16T13:08:31;2.67;;;1.10;;
15968;SDS011;8085;53.472;9.794;2022-10-16T13:11:13;3.90;;;1.10;;
15968;SDS011;8085;53.472;9.794;2022-10-16T13:13:54;3.83;;;1.17;;
15968;SDS011;8085;53.472;9.794;2022-10-16T13:16:38;3.27;;;1.13;;
15968;SDS011;8085;53.472;9.794;2022-10-16T13:19:20;5.27;;;1.20;;
15968;SDS011;8085;53.472;9.794;2022-10-16T13:21:56;3.73;;;0.87;;
15968;SDS011;8085;53.472;9.794;2022-10-16T13:24:33;3.37;;;1.30;;
15968;SDS011;8085;53.472;9.794;2022-10-16T13:27:25;3.00;;;1.30;;
15968;SDS011;8085;53.472;9.794;2022-10-16T13:30:02;4.17;;;1.60;;
15968;SDS011;8085;53.472;9.794;2022-10-16T13:32:38;3.50;;;1.10;;
15968;SDS011;8085;53.472;9.794;2022-10-16T13:35:15;4.23;;;1.00;;
15968;SDS011;8085;53.472;9.794;2022-10-16T13:37:45;3.30;;;1.13;;
15968;SDS011;8085;53.472;9.794;2022-10-16T13:40:17;3.50;;;1.10;;
15968;SDS011;8085;53.472;9.794;2022-10-16T13:42:47;3.60;;;1.00;;
15968;SDS011;8085;53.472;9.794;2022-10-16T13:45:18;3.10;;;1.07;;
15968;SDS011;8085;53.472;9.794;2022-10-16T13:47:46;3.83;;;0.90;;
15968;SDS011;8085;53.472;9.794;2022-10-16T13:50:13;4.53;;;1.27;;
15968;SDS011;8085;53.472;9.794;2022-10-16T13:52:41;6.27;;;1.13;;
15968;SDS011;8085;53.472;9.794;2022-10-16T13:55:10;4.47;;;1.10;;
15968;SDS011;8085;53.472;9.794;2022-10-16T13:57:38;5.33;;;1.37;;
15968;SDS011;8085;53.472;9.794;2022-10-16T14:00:18;4.33;;;1.53;;
15968;SDS011;8085;53.472;9.794;2022-10-16T14:02:49;2.40;;;0.90;;
15968;SDS011;8085;53.472;9.794;2022-10-16T14:05:19;3.43;;;0.97;;
15968;SDS011;8085;53.472;9.794;2022-10-16T14:07:47;2.97;;;1.03;;
15968;SDS011;8085;53.472;9.794;2022-10-16T14:10:20;4.27;;;1.20;;
15968;SDS011;8085;53.472;9.794;2022-10-16T14:12:56;5.30;;;1.20;;
15968;SDS011;8085;53.472;9.794;2022-10-16T14:15:26;9.77;;;1.10;;
15968;SDS011;8085;53.472;9.794;2022-10-16T14:17:53;3.40;;;1.20;;
15968;SDS011;8085;53.472;9.794;2022-10-16T14:20:21;5.20;;;1.07;;
15968;SDS011;8085;53.472;9.794;2022-10-16T14:22:58;4.03;;;1.10;;
15968;SDS011;8085;53.472;9.794;2022-10-16T14:25:27;3.17;;;0.80;;
15968;SDS011;8085;53.472;9.794;2022-10-16T14:27:56;3.43;;;1.20;;
15968;SDS011;8085;53.472;9.794;2022-10-16T14:30:24;3.97;;;0.93;;
15968;SDS011;8085;53.472;9.794;2022-10-16T14:32:54;4.67;;;1.37;;
15968;SDS011;8085;53.472;9.794;2022-10-16T14:35:23;3.80;;;1.10;;
15968;SDS011;8085;53.472;9.794;2022-10-16T14:37:52;5.00;;;1.27;;
15968;SDS011;8085;53.472;9.794;2022-10-16T14:40:20;2.97;;;1.13;;
15968;SDS011;8085;53.472;9.794;2022-10-16T14:42:50;4.23;;;1.20;;
15968;SDS011;8085;53.472;9.794;2022-10-16T14:45:18;7.97;;;1.67;;
15968;SDS011;8085;53.472;9.794;2022-10-16T14:47:49;5.00;;;1.23;;
15968;SDS011;8085;53.472;9.794;2022-10-16T14:50:18;6.70;;;1.47;;
15968;SDS011;8085;53.472;9.794;2022-10-16T14:52:45;4.20;;;1.00;;
15968;SDS011;8085;53.472;9.794;2022-10-16T14:55:11;8.13;;;1.57;;
15968;SDS011;8085;53.472;9.794;2022-10-16T14:57:38;5.53;;;1.40;;
15968;SDS011;8085;53.472;9.794;2022-10-16T15:00:10;4.13;;;0.87;;
15968;SDS011;8085;53.472;9.794;2022-10-16T15:02:42;5.93;;;1.30;;
15968;SDS011;8085;53.472;9.794;2022-10-16T15:05:15;4.87;;;1.00;;
15968;SDS011;8085;53.472;9.794;2022-10-16T15:07:44;4.47;;;1.10;;
15968;SDS011;8085;53.472;9.794;2022-10-16T15:10:11;4.33;;;1.03;;
15968;SDS011;8085;53.472;9.794;2022-10-16T15:12:39;5.60;;;1.00;;
15968;SDS011;8085;53.472;9.794;2022-10-16T15:15:15;6.37;;;1.33;;
15968;SDS011;8085;53.472;9.794;2022-10-16T15:17:52;4.40;;;1.10;;
15968;SDS011;8085;53.472;9.794;2022-10-16T15:20:23;7.10;;;1.40;;
15968;SDS011;8085;53.472;9.794;2022-10-16T15:22:50;5.17;;;1.20;;